Atmospheric History
02/08/2018 18:35  to  2/9/2018 18:35
Change End Date:
To complete the export process:
1) Select all of the data below
2) Copy the data to the clipboard
3) Open a word processor such as Notepad
4) Paste the data into the word processor
5) Save the file

Date/Time (MDT), AirTemp, RH, Dewpoint ,AvgWindSpeed, GustWindSpeed, WindDirection, PrecipType, PrecipIntensity, PrecipAccumulation, PrecipRate ,Visibility
02/09/2018 18:30, -6, 60, -16 ,1, 1, SE, None, None, 8.09, 0 ,5806
02/09/2018 18:20, -6, 60, -16 ,1, 2, SE, None, None, 8.11, 0 ,5806
02/09/2018 18:20, -6, 60, -16 ,1, 2, SE, None, None, 8.11, 0 ,5806
02/09/2018 18:10, -5, 59, -16 ,1, 3, SE, None, None, 8.11, 0 ,5806
02/09/2018 18:05, -5, 59, -16 ,2, 3, SE, None, None, 8.11, 0 ,5806
02/09/2018 18:00, -6, 58, -17 ,3, 3, SE, None, None, 8.11, 0 ,5806
02/09/2018 17:50, -5, 56, -17 ,2, 3, E, None, None, 8.11, 0 ,5806
02/09/2018 17:50, -5, 56, -17 ,2, 3, E, None, None, 8.11, 0 ,5806
02/09/2018 17:40, -6, 56, -17 ,2, 3, E, None, None, 8.13, 0 ,5806
02/09/2018 17:35, -6, 55, -18 ,3, 4, E, None, None, 8.13, 0 ,5806
02/09/2018 17:30, -5, 54, -18 ,3, 4, E, None, None, 8.13, 0 ,5806
02/09/2018 17:20, -5, 53, -18 ,2, 3, SE, None, None, 8.14, 0 ,5806
02/09/2018 17:20, -5, 53, -18 ,2, 3, SE, None, None, 8.14, 0 ,5806
02/09/2018 17:10, -4, 52, -17 ,1, 1, E, None, None, 8.17, 0 ,5806
02/09/2018 17:05, -3, 52, -16 ,1, 1, E, None, None, 8.17, 0 ,5806
02/09/2018 16:59, -3, 52, -16 ,1, 1, E, None, None, 8.38, 0 ,5806
02/09/2018 16:50, -3, 50, -17 ,1, 1, NE, None, None, 8.4, 0 ,5806
02/09/2018 16:49, -3, 50, -17 ,1, 1, NE, None, None, 8.4, 0 ,5806
02/09/2018 16:39, -3, 48, -18 ,1, 2, E, None, None, 8.48, 0 ,5806
02/09/2018 16:35, -3, 47, -18 ,2, 2, E, None, None, 8.48, 0 ,5806
02/09/2018 16:29, -1, 45, -18 ,2, 2, E, None, None, 8.67, 0 ,5806
02/09/2018 16:20, 2, 42, -16 ,1, 1, SE, None, None, 8.68, 0 ,5806
02/09/2018 16:19, 2, 42, -15 ,1, 1, SE, None, None, 8.68, 0 ,5806
02/09/2018 16:09, 7, 40, -12 ,1, 2, SE, None, None, 8.71, 0 ,5806
02/09/2018 16:05, 7, 40, -12 ,2, 2, SE, None, None, 8.71, 0 ,5806
02/09/2018 15:59, 9, 40, -10 ,2, 2, SE, None, None, 8.72, 0 ,5806
02/09/2018 15:50, 10, 41, -9 ,1, 1, SE, None, None, 8.72, 0 ,5806
02/09/2018 15:49, 10, 41, -9 ,1, 1, SE, None, None, 8.72, 0 ,5806
02/09/2018 15:39, 10, 43, -8 ,1, 1, E, None, None, 8.72, 0 ,5806
02/09/2018 15:35, 8, 44, -9 ,1, 1, E, None, None, 8.72, 0 ,5806
02/09/2018 15:29, 8, 44, -9 ,0, 1, E, None, None, 8.73, 0 ,5806
02/09/2018 15:20, 7, 46, -9 ,1, 2, NE, None, None, 8.73, 0 ,5806
02/09/2018 15:19, 7, 46, -9 ,1, 2, NE, None, None, 8.73, 0 ,5806
02/09/2018 15:09, 7, 47, -9 ,2, 2, N, None, None, 8.73, 0 ,5806
02/09/2018 15:05, 8, 47, -8 ,0, 2, NW, None, None, 8.73, 0 ,5806
02/09/2018 14:59, 6, 48, -9 ,0, 0, NW, None, None, 8.74, 0 ,5806
02/09/2018 14:50, 6, 47, -10 ,0, 1, NE, None, None, 8.74, 0 ,5806
02/09/2018 14:49, 6, 47, -9 ,0, 1, NE, None, None, 8.74, 0 ,5806
02/09/2018 14:39, 7, 47, -9 ,1, 1, E, None, None, 8.76, 0 ,5806
02/09/2018 14:35, 8, 47, -8 ,1, 2, E, None, None, 8.76, 0 ,5806
02/09/2018 14:29, 7, 48, -8 ,1, 2, E, None, None, 8.8, 0 ,5806
02/09/2018 14:20, 6, 48, -9 ,0, 2, N, None, None, 8.81, 0 ,5806
02/09/2018 14:19, 6, 48, -9 ,1, 2, N, None, None, 8.81, 0 ,5806
02/09/2018 14:08, 7, 49, -8 ,1, 3, W, None, None, 8.81, 0 ,5806
02/09/2018 14:05, 7, 50, -7 ,1, 3, W, None, None, 8.81, 0 ,5806
02/09/2018 13:58, 7, 51, -7 ,1, 2, NW, None, None, 8.85, 0 ,5806
02/09/2018 13:50, 5, 52, -9 ,1, 3, NW, None, None, 8.91, 0 ,5806
02/09/2018 13:48, 4, 52, -9 ,2, 3, NW, None, None, 8.91, 0 ,5806
02/09/2018 13:38, 3, 52, -10 ,2, 3, NW, None, None, 8.91, 0 ,5806
02/09/2018 13:35, 3, 52, -11 ,2, 3, NW, None, None, 8.91, 0 ,5806
02/09/2018 13:28, 3, 51, -11 ,2, 3, NW, None, None, 8.92, 0 ,5806
02/09/2018 13:20, 5, 51, -9 ,2, 2, NW, None, None, 8.93, 0 ,5806
02/09/2018 13:18, 6, 51, -8 ,1, 2, NW, None, None, 8.93, 0 ,5806
02/09/2018 13:08, 7, 52, -7 ,2, 2, NW, None, None, 8.93, 0 ,5806
02/09/2018 13:05, 8, 52, -6 ,1, 2, NW, None, None, 8.93, 0 ,5806
02/09/2018 12:58, 9, 54, -4 ,0, 1, NE, None, None, 8.93, 0 ,5806
02/09/2018 12:50, 9, 55, -4 ,0, 1, SE, None, None, 8.94, 0 ,5806
02/09/2018 12:48, 9, 56, -4 ,0, 1, E, None, None, 8.94, 0 ,5806
02/09/2018 12:38, 8, 59, -3 ,1, 1, E, None, None, 8.94, 0 ,5806
02/09/2018 12:35, 8, 60, -3 ,0, 0, SE, None, None, 8.94, 0 ,5806
02/09/2018 12:28, 7, 62, -3 ,0, 1, NE, None, None, 8.95, 0 ,5806
02/09/2018 12:20, 5, 64, -4 ,1, 2, E, None, None, 8.96, 0 ,5806
02/09/2018 12:18, 4, 64, -5 ,1, 2, E, None, None, 8.96, 0 ,5806
02/09/2018 12:08, 7, 67, -1 ,2, 2, E, None, None, 9.02, 0 ,5806
02/09/2018 12:05, 7, 68, -1 ,1, 2, E, None, None, 9.02, 0 ,5806
02/09/2018 11:58, 6, 70, -1 ,2, 2, E, None, None, 9.07, 0 ,5806
02/09/2018 11:50, 5, 71, -2 ,2, 3, E, None, None, 9.11, 0 ,5806
02/09/2018 11:48, 4, 71, -3 ,1, 3, E, None, None, 9.11, 0 ,5806
02/09/2018 11:38, 0, 71, -7 ,1, 2, NE, None, None, 9.13, 0 ,5806
02/09/2018 11:35, -1, 72, -8 ,0, 4, NE, None, None, 9.13, 0 ,5806
02/09/2018 11:28, -3, 72, -10 ,3, 6, N, None, None, 9.14, 0 ,5806
02/09/2018 11:20, -4, 72, -11 ,5, 6, N, None, None, 9.17, 0 ,5806
02/09/2018 11:17, -5, 72, -11 ,6, 6, N, None, None, 9.17, 0 ,5806
02/09/2018 11:07, -4, 72, -11 ,5, 6, N, None, None, 9.33, 0 ,5806
02/09/2018 11:05, -3, 72, -10 ,5, 6, NE, None, None, 9.33, 0 ,5806
02/09/2018 10:57, 0, 73, -7 ,1, 3, NW, None, None, 9.68, 0 ,5806
02/09/2018 10:50, 0, 75, -6 ,2, 2, E, None, None, 9.93, 0 ,5806
02/09/2018 10:47, 1, 75, -5 ,1, 2, N, None, None, 9.93, 0 ,5806
02/09/2018 10:37, -1, 77, -6 ,1, 3, S, None, None, 10, 0 ,5806
02/09/2018 10:35, 0, 77, -5 ,2, 3, SE, None, None, 10, 0 ,5806
02/09/2018 10:27, -2, 77, -7 ,1, 4, SE, None, None, 10.02, 0 ,4215
02/09/2018 10:20, -4, 77, -9 ,2, 4, E, None, None, 10.03, 0 ,4956
02/09/2018 10:17, -4, 77, -9 ,2, 4, N, None, None, 10.03, 0 ,4638
02/09/2018 10:07, -5, 77, -11 ,4, 5, NW, None, None, 10.03, 0 ,5806
02/09/2018 10:05, -6, 77, -11 ,4, 5, NW, None, None, 10.03, 0 ,5806
02/09/2018 09:57, -6, 77, -12 ,4, 6, NW, None, None, 10.03, 0 ,5806
02/09/2018 09:50, -6, 77, -11 ,5, 6, NW, None, None, 10.03, 0 ,5806
02/09/2018 09:47, -6, 77, -11 ,5, 6, NW, None, None, 10.03, 0 ,5806
02/09/2018 09:37, -4, 77, -10 ,4, 5, NW, None, None, 10.03, 0 ,5806
02/09/2018 09:35, -4, 77, -9 ,4, 4, NW, None, None, 10.03, 0 ,5806
02/09/2018 09:27, -5, 77, -10 ,2, 3, NW, None, None, 10.03, 0 ,5806
02/09/2018 09:20, -6, 77, -11 ,2, 4, N, Snow, Slight, 10.03, 0 ,5806
02/09/2018 09:17, -6, 77, -12 ,3, 4, N, Snow, Slight, 10.03, 0 ,5806
02/09/2018 09:07, -6, 77, -11 ,0, 1, NE, Snow, Slight, 10.02, 0 ,5806
02/09/2018 09:05, -6, 77, -12 ,0, 0, NE, Snow, Slight, 10.02, 0 ,5806
02/09/2018 08:57, -7, 77, -13 ,0, 2, NE, None, None, 10.02, 0 ,5806
02/09/2018 08:50, -7, 77, -13 ,0, 1, S, Snow, Slight, 10.02, 0 ,5806
02/09/2018 08:47, -8, 77, -13 ,1, 1, SE, Snow, Slight, 10.02, 0 ,5806
02/09/2018 08:37, -9, 77, -14 ,0, 1, NE, None, None, 10.02, 0 ,5806
02/09/2018 08:35, -9, 77, -15 ,0, 1, NE, None, None, 10.02, 0 ,5806
02/09/2018 08:27, -9, 77, -14 ,1, 1, SE, Snow, Slight, 10.02, 0 ,5806
02/09/2018 08:20, -10, 77, -15 ,1, 2, SE, None, None, 10.02, 0 ,5806
02/09/2018 08:16, -10, 77, -15 ,1, 1, SE, None, None, 10.02, 0 ,5806
02/09/2018 08:06, -10, 76, -16 ,0, 1, SW, None, None, 10.02, 0 ,4959
02/09/2018 08:05, -11, 76, -16 ,0, 1, W, None, None, 10.02, 0 ,4871
02/09/2018 07:56, -11, 76, -17 ,1, 1, SW, None, None, 10.02, 0 ,4540
02/09/2018 07:50, -11, 76, -17 ,1, 1, SW, None, None, 10.02, 0 ,4290
02/09/2018 07:46, -12, 76, -17 ,1, 1, S, None, None, 10.02, 0 ,3847
02/09/2018 07:36, -11, 77, -16 ,0, 1, SE, None, None, 10.02, 0 ,3864
02/09/2018 07:35, -11, 77, -16 ,0, 1, SE, None, None, 10.02, 0 ,3815
02/09/2018 07:26, -11, 77, -16 ,1, 1, E, None, None, 10.02, 0 ,3641
02/09/2018 07:20, -11, 77, -16 ,0, 0, N, None, None, 10.02, 0 ,3703
02/09/2018 07:16, -10, 77, -16 ,0, 0, N, None, None, 10.02, 0 ,3874
02/09/2018 07:06, -10, 77, -15 ,0, 1, N, None, None, 10.02, 0 ,4254
02/09/2018 07:05, -10, 77, -15 ,0, 1, N, None, None, 10.02, 0 ,4517
02/09/2018 06:56, -9, 77, -14 ,0, 1, NW, None, None, 10.02, 0 ,4959
02/09/2018 06:50, -9, 77, -14 ,1, 1, W, None, None, 10.02, 0 ,4904
02/09/2018 06:46, -8, 77, -13 ,1, 1, W, None, None, 10.02, 0 ,5806
02/09/2018 06:36, -8, 77, -13 ,1, 1, W, None, None, 10.02, 0 ,5806
02/09/2018 06:35, -8, 77, -13 ,1, 1, W, None, None, 10.02, 0 ,5806
02/09/2018 06:26, -8, 77, -13 ,0, 1, NW, Snow, Slight, 10.02, 0 ,5189
02/09/2018 06:20, -8, 77, -13 ,1, 2, NW, Snow, Slight, 10.02, 0 ,4215
02/09/2018 06:16, -8, 77, -13 ,1, 3, NW, Snow, Slight, 10.02, 0.1 ,4189
02/09/2018 06:06, -7, 77, -12 ,3, 3, NW, Snow, Slight, 10.01, 0 ,5806
02/09/2018 06:05, -7, 77, -12 ,3, 3, NW, Snow, Slight, 10.01, 0 ,5806
02/09/2018 05:56, -8, 77, -13 ,2, 2, NW, Snow, Slight, 10.01, 0 ,5806
02/09/2018 05:50, -8, 77, -13 ,2, 2, NW, Snow, Slight, 10, 0 ,5806
02/09/2018 05:46, -8, 77, -13 ,2, 3, NW, Snow, Slight, 10, 0.1 ,5806
02/09/2018 05:36, -7, 77, -12 ,2, 2, NW, Snow, Slight, 9.98, 0.2 ,3277
02/09/2018 05:35, -7, 77, -12 ,2, 2, NW, Snow, Slight, 9.97, 0.1 ,3441
02/09/2018 05:26, -7, 77, -12 ,1, 2, NW, Snow, Slight, 9.96, 0.1 ,3260
02/09/2018 05:20, -7, 77, -12 ,1, 2, NW, None, None, 9.96, 0 ,3647
02/09/2018 05:15, -7, 77, -12 ,2, 2, NW, None, None, 9.96, 0 ,3683
02/09/2018 05:05, -8, 77, -13 ,2, 3, N, None, None, 9.96, 0 ,3470
02/09/2018 05:05, -8, 77, -13 ,2, 3, N, None, None, 9.96, 0 ,3470
02/09/2018 04:55, -8, 77, -13 ,2, 4, NW, Snow, Slight, 9.96, 0 ,3080
02/09/2018 04:50, -8, 77, -13 ,4, 4, NW, Snow, Slight, 9.96, 0 ,2932
02/09/2018 04:45, -8, 77, -13 ,4, 4, NW, Snow, Slight, 9.96, 0 ,3487
02/09/2018 04:35, -8, 77, -13 ,2, 3, NW, None, None, 9.96, 0 ,4300
02/09/2018 04:35, -8, 77, -13 ,2, 3, NW, None, None, 9.96, 0 ,4300
02/09/2018 04:25, -7, 77, -12 ,2, 2, NW, Snow, Slight, 9.96, 0 ,4608
02/09/2018 04:20, -7, 77, -12 ,1, 2, N, Snow, Slight, 9.96, 0 ,4428
02/09/2018 04:15, -7, 77, -12 ,1, 4, NW, Snow, Slight, 9.96, 0 ,4323
02/09/2018 04:05, -7, 77, -12 ,3, 4, NW, Snow, Slight, 9.96, 0 ,4333
02/09/2018 04:05, -7, 77, -12 ,3, 4, NW, Snow, Slight, 9.96, 0 ,4333
02/09/2018 03:55, -7, 77, -12 ,2, 3, N, None, None, 9.95, 0 ,5806
02/09/2018 03:50, -7, 77, -12 ,2, 4, NW, Snow, Slight, 9.95, 0 ,5806
02/09/2018 03:45, -7, 77, -12 ,2, 4, NW, Snow, Slight, 9.95, 0 ,5806
02/09/2018 03:35, -7, 78, -12 ,2, 2, W, Snow, Slight, 9.95, 0 ,5806
02/09/2018 03:35, -7, 78, -12 ,2, 2, W, Snow, Slight, 9.95, 0 ,5806
02/09/2018 03:25, -7, 78, -12 ,1, 2, W, Snow, Slight, 9.95, 0 ,5806
02/09/2018 03:20, -7, 78, -12 ,0, 1, SW, Snow, Slight, 9.94, 0 ,5806
02/09/2018 03:15, -7, 78, -12 ,0, 1, S, Snow, Slight, 9.94, 0 ,5806
02/09/2018 03:05, -7, 78, -12 ,0, 2, NE, None, None, 9.94, 0 ,5806
02/09/2018 03:05, -7, 78, -12 ,0, 2, NE, None, None, 9.94, 0 ,5806
02/09/2018 02:55, -7, 78, -12 ,2, 3, NW, Snow, Slight, 9.94, 0 ,5806
02/09/2018 02:50, -7, 78, -12 ,2, 3, NW, Snow, Slight, 9.94, 0 ,5806
02/09/2018 02:44, -7, 78, -12 ,2, 3, NW, Snow, Slight, 9.94, 0 ,5806
02/09/2018 02:35, -7, 78, -12 ,3, 4, NW, Snow, Slight, 9.94, 0 ,5806
02/09/2018 02:34, -7, 78, -12 ,3, 4, NW, Snow, Slight, 9.94, 0 ,5806
02/09/2018 02:24, -7, 78, -12 ,4, 4, NW, Snow, Slight, 9.94, 0 ,5806
02/09/2018 02:20, -7, 78, -12 ,2, 3, NW, Snow, Slight, 9.93, 0 ,5806
02/09/2018 02:14, -7, 78, -12 ,1, 1, NW, Snow, Slight, 9.93, 0.1 ,5806
02/09/2018 02:05, -7, 78, -12 ,0, 2, NE, Snow, Slight, 9.92, 0.1 ,5806
02/09/2018 02:04, -7, 78, -12 ,0, 2, NE, Snow, Slight, 9.92, 0.1 ,5806
02/09/2018 01:54, -7, 78, -12 ,0, 3, NW, Snow, Slight, 9.88, 0.3 ,4822
02/09/2018 01:50, -7, 78, -12 ,1, 3, W, Snow, Slight, 9.87, 0.3 ,4822
02/09/2018 01:44, -7, 78, -12 ,2, 2, W, Snow, Slight, 9.84, 0.3 ,3752
02/09/2018 01:35, -7, 78, -12 ,0, 2, SW, Snow, Moderate, 9.69, 1.8 ,1551
02/09/2018 01:34, -7, 78, -12 ,0, 2, SW, Snow, Moderate, 9.66, 2 ,1440
02/09/2018 01:24, -7, 78, -12 ,2, 3, NW, Snow, Heavy, 9.16, 4.4 ,954
02/09/2018 01:20, -7, 78, -12 ,2, 2, NW, Snow, Slight, 8.95, 1 ,2273
02/09/2018 01:14, -7, 78, -12 ,1, 2, NW, Snow, Moderate, 8.83, 1.6 ,1745
02/09/2018 01:05, -7, 78, -12 ,1, 6, NW, Snow, Slight, 8.66, 1.1 ,2057
02/09/2018 01:04, -7, 78, -12 ,1, 6, NW, Snow, Slight, 8.64, 1.1 ,2053
02/09/2018 00:54, -7, 78, -12 ,6, 7, NW, Snow, Moderate, 8.45, 1.7 ,1666
02/09/2018 00:50, -7, 78, -12 ,4, 6, NW, Snow, Moderate, 8.35, 1.5 ,1984
02/09/2018 00:44, -7, 78, -12 ,3, 6, N, Snow, Slight, 8.24, 0.9 ,2211
02/09/2018 00:35, -6, 78, -11 ,4, 5, N, Snow, Moderate, 8.03, 1.8 ,1568
02/09/2018 00:34, -7, 78, -12 ,4, 5, NE, Snow, Moderate, 8, 1.8 ,1604
02/09/2018 00:24, -7, 78, -12 ,3, 4, N, Snow, Slight, 7.81, 0.8 ,2516
02/09/2018 00:20, -7, 78, -12 ,4, 6, N, Snow, Slight, 7.76, 0.7 ,2811
02/09/2018 00:14, -6, 78, -11 ,4, 9, N, Snow, Slight, 7.7, 0.9 ,2322
02/09/2018 00:05, -6, 78, -11 ,8, 9, NW, Snow, Moderate, 7.36, 3.1 ,1171
02/09/2018 00:04, -6, 78, -11 ,8, 9, NW, Snow, Moderate, 7.3, 2.4 ,1322
02/08/2018 23:53, -5, 78, -10 ,7, 7, NW, Snow, Moderate, 6.9, 2 ,1460
02/08/2018 23:50, -5, 78, -10 ,6, 7, NW, Snow, Moderate, 6.8, 1.9 ,1476
02/08/2018 23:43, -5, 78, -10 ,6, 6, NW, Snow, Moderate, 6.5, 2.3 ,1371
02/08/2018 23:35, -5, 78, -10 ,4, 6, NW, Snow, Slight, 6.29, 0.7 ,2906
02/08/2018 23:33, -5, 78, -10 ,4, 6, NW, Snow, Slight, 6.28, 0.6 ,3054
02/08/2018 23:23, -5, 78, -10 ,5, 6, NW, Snow, Moderate, 6.15, 1.4 ,1794
02/08/2018 23:20, -5, 78, -10 ,4, 6, NW, Snow, Moderate, 6.07, 1.5 ,1689
02/08/2018 23:13, -5, 78, -9 ,3, 4, NW, Snow, Moderate, 5.86, 1.8 ,1578
02/08/2018 23:05, -5, 78, -10 ,2, 3, NW, Snow, Moderate, 5.57, 2.3 ,1391
02/08/2018 23:03, -5, 78, -10 ,1, 4, NW, Snow, Moderate, 5.53, 2.1 ,1456
02/08/2018 22:53, -5, 78, -10 ,3, 4, N, Snow, Moderate, 5.11, 2.4 ,1335
02/08/2018 22:50, -5, 78, -10 ,2, 6, NW, Snow, Moderate, 4.99, 2.3 ,1335
02/08/2018 22:43, -5, 78, -10 ,5, 6, NW, Snow, Heavy, 4.7, 3.7 ,1059
02/08/2018 22:35, -4, 78, -9 ,4, 6, NW, Snow, Slight, 4.43, 1 ,2253
02/08/2018 22:33, -4, 78, -9 ,4, 6, NW, Snow, Slight, 4.39, 0.6 ,2913
02/08/2018 22:23, -4, 78, -9 ,4, 4, NW, Snow, Slight, 4.31, 0.1 ,5806
02/08/2018 22:20, -4, 78, -9 ,1, 4, W, Snow, Slight, 4.3, 0.2 ,5806
02/08/2018 22:13, -3, 78, -8 ,3, 4, NE, Snow, Slight, 4.28, 0.1 ,5806
02/08/2018 22:05, -4, 78, -9 ,4, 8, E, Snow, Slight, 4.27, 0 ,5806
02/08/2018 22:03, -4, 78, -9 ,4, 8, E, Snow, Slight, 4.27, 0 ,5806
02/08/2018 21:53, -4, 78, -9 ,3, 6, E, Snow, Slight, 4.27, 0.1 ,5806
02/08/2018 21:50, -4, 78, -9 ,0, 1, NE, Snow, Slight, 4.26, 0.2 ,5035
02/08/2018 21:43, -4, 78, -9 ,0, 3, E, Snow, Slight, 4.21, 1.1 ,2030
02/08/2018 21:35, -4, 78, -9 ,2, 3, NE, Snow, Slight, 4.06, 0.3 ,3893
02/08/2018 21:33, -4, 78, -9 ,2, 3, N, Snow, Slight, 4.04, 0.7 ,2680
02/08/2018 21:23, -4, 78, -9 ,2, 4, N, Snow, Slight, 3.9, 0.7 ,2670
02/08/2018 21:20, -4, 78, -9 ,2, 4, NW, Snow, Slight, 3.86, 0.7 ,2785
02/08/2018 21:13, -4, 78, -9 ,4, 6, NW, Snow, Slight, 3.77, 0.9 ,2296
02/08/2018 21:05, -4, 78, -9 ,6, 6, NW, Snow, Moderate, 3.57, 2.5 ,1309
02/08/2018 21:03, -4, 78, -9 ,6, 7, NW, Snow, Moderate, 3.49, 2.4 ,1361
02/08/2018 20:52, -4, 79, -9 ,6, 7, NW, Snow, Moderate, 3.2, 1.7 ,1578
02/08/2018 20:50, -4, 79, -9 ,6, 6, NW, Snow, Moderate, 3.1, 1.7 ,1594
02/08/2018 20:42, -4, 79, -9 ,5, 7, NW, Snow, Heavy, 2.79, 3.8 ,1014
02/08/2018 20:35, -4, 79, -9 ,6, 7, NW, Snow, Moderate, 2.45, 2 ,1512
02/08/2018 20:32, -4, 79, -9 ,7, 7, NW, Snow, Moderate, 2.38, 1.6 ,1660
02/08/2018 20:22, -4, 79, -9 ,4, 6, NW, Snow, Slight, 2.18, 0.7 ,2732
02/08/2018 20:20, -4, 79, -9 ,5, 6, NW, Snow, Slight, 2.15, 0.6 ,3198
02/08/2018 20:12, -4, 79, -9 ,4, 6, N, Snow, Slight, 2.09, 0.3 ,5806
02/08/2018 20:05, -4, 79, -9 ,4, 4, NW, Snow, Slight, 2.07, 0 ,5806
02/08/2018 20:02, -3, 79, -8 ,3, 4, NW, Snow, Slight, 2.07, 0 ,5806
02/08/2018 19:52, -3, 79, -8 ,1, 5, W, None, None, 2.07, 0 ,5806
02/08/2018 19:50, -3, 79, -8 ,1, 6, W, None, None, 2.07, 0 ,5806
02/08/2018 19:42, -4, 79, -9 ,6, 7, NW, Snow, Slight, 2.07, 0 ,5806
02/08/2018 19:35, -3, 79, -8 ,6, 8, NW, Snow, Slight, 2.06, 0.1 ,5806
02/08/2018 19:32, -3, 79, -8 ,7, 9, NW, Snow, Slight, 2.06, 0.1 ,5806
02/08/2018 19:22, -3, 79, -8 ,9, 9, NW, Snow, Slight, 2.06, 0 ,5806
02/08/2018 19:20, -3, 79, -8 ,8, 9, NW, Snow, Slight, 2.06, 0 ,5806
02/08/2018 19:12, -3, 79, -8 ,7, 9, NW, Snow, Slight, 2.06, 0 ,5806
02/08/2018 19:05, -3, 79, -8 ,6, 7, NW, Snow, Slight, 2.06, 0.1 ,5806
02/08/2018 19:02, -3, 79, -8 ,6, 7, NW, Snow, Slight, 2.05, 0.1 ,5806
02/08/2018 18:52, -3, 79, -7 ,7, 10, NW, Snow, Slight, 2.04, 0 ,5806
02/08/2018 18:50, -2, 79, -7 ,8, 10, NW, Snow, Slight, 2.04, 0 ,5806
02/08/2018 18:42, -2, 79, -7 ,8, 10, NW, Snow, Slight, 2.04, 0.1 ,5806
02/08/2018 18:35, -1, 80, -6 ,9, 11, NW, Snow, Moderate, 2, 1.2 ,2148
Change End Date:

Copyright © 1998-2015 Vaisala, Inc.
All Rights Reserved
Send comments about the data to:
SCAN Web ® is a registered trademark of Vaisala, Inc.
SCAN Web Version 6.0